Time;durP1;ratioP1;P1;durP2;ratioP2;P2;SDS_P1;SDS_P2;PMS_P1;PMS_P2;Temp;Humidity;BMP_temperature;BMP_pressure;BME280_temperature;BME280_humidity;BME280_pressure;Samples;Min_cycle;Max_cycle;Signal;HPM_P1;HPM_P2
2023/02/25 00:00:29;;;;;;;67.18;9.45;;;;;;;;;;5074150;28;20216;-68
2023/02/25 00:02:57;;;;;;;67.97;10.45;;;;;;;;;;5074236;28;20212;-64
2023/02/25 00:05:25;;;;;;;68.85;10.13;;;;;;;;;;5074530;28;20228;-65
2023/02/25 00:07:52;;;;;;;67.35;9.75;;;;;;;;;;5074087;28;20212;-65
2023/02/25 00:10:19;;;;;;;66.32;9.30;;;;;;;;;;5072650;28;20209;-65
2023/02/25 00:12:47;;;;;;;64.95;9.82;;;;;;;;;;5074355;28;20304;-65
2023/02/25 00:15:15;;;;;;;69.03;10.75;;;;;;;;;;5073957;28;20229;-65
2023/02/25 00:17:42;;;;;;;66.85;9.05;;;;;;;;;;5073931;28;20205;-65
2023/02/25 00:20:12;;;;;;;68.63;10.43;;;;;;;;;;5073731;28;20205;-65
2023/02/25 00:22:39;;;;;;;69.70;10.82;;;;;;;;;;5073778;28;20418;-65
2023/02/25 00:25:07;;;;;;;67.72;9.80;;;;;;;;;;5074222;28;20229;-65
2023/02/25 00:27:34;;;;;;;66.35;9.32;;;;;;;;;;5074040;28;20205;-65
2023/02/25 00:30:04;;;;;;;69.63;10.80;;;;;;;;;;5073419;28;20295;-64
2023/02/25 00:32:31;;;;;;;65.22;8.90;;;;;;;;;;5073824;28;20300;-65
2023/02/25 00:34:58;;;;;;;67.75;8.55;;;;;;;;;;5073508;28;20228;-65
2023/02/25 00:37:25;;;;;;;71.10;10.38;;;;;;;;;;5073879;28;20267;-65
2023/02/25 00:39:52;;;;;;;72.53;10.30;;;;;;;;;;5073487;28;20201;-65
2023/02/25 00:42:20;;;;;;;65.88;8.77;;;;;;;;;;5073846;28;20205;-65
2023/02/25 00:44:48;;;;;;;69.80;9.15;;;;;;;;;;5073530;28;20225;-65
2023/02/25 00:47:16;;;;;;;62.90;8.18;;;;;;;;;;5073630;28;20212;-65
2023/02/25 00:49:45;;;;;;;63.33;8.02;;;;;;;;;;5072984;28;20206;-65
2023/02/25 00:52:13;;;;;;;66.68;8.88;;;;;;;;;;5073528;28;20205;-65
2023/02/25 00:54:40;;;;;;;63.88;8.18;;;;;;;;;;5073493;28;20221;-65
2023/02/25 00:57:07;;;;;;;67.80;8.10;;;;;;;;;;5073323;28;20225;-65
2023/02/25 00:59:34;;;;;;;64.20;8.00;;;;;;;;;;5073058;28;20208;-65
2023/02/25 01:02:01;;;;;;;64.10;8.45;;;;;;;;;;5073268;28;20593;-65
2023/02/25 01:04:30;;;;;;;64.30;8.27;;;;;;;;;;5073125;28;20216;-66
2023/02/25 01:06:57;;;;;;;62.72;7.65;;;;;;;;;;5073094;28;20696;-65
2023/02/25 01:09:24;;;;;;;63.95;7.50;;;;;;;;;;5072858;28;20209;-65
2023/02/25 01:11:51;;;;;;;64.05;7.43;;;;;;;;;;5072969;28;20233;-66
2023/02/25 01:14:20;;;;;;;62.75;7.60;;;;;;;;;;5072827;28;20227;-65
2023/02/25 01:16:47;;;;;;;66.85;7.47;;;;;;;;;;5072682;28;20227;-66
2023/02/25 01:19:15;;;;;;;71.18;9.40;;;;;;;;;;5072642;28;20227;-65
2023/02/25 01:21:45;;;;;;;67.88;7.63;;;;;;;;;;5072656;28;20205;-66
2023/02/25 01:24:14;;;;;;;62.25;7.00;;;;;;;;;;5072642;28;20662;-66
2023/02/25 01:26:42;;;;;;;66.35;7.30;;;;;;;;;;5072604;28;20232;-66
2023/02/25 01:29:11;;;;;;;64.32;7.53;;;;;;;;;;5072270;28;20205;-66
2023/02/25 01:31:38;;;;;;;62.50;7.65;;;;;;;;;;5072819;28;20559;-66
2023/02/25 01:34:06;;;;;;;68.95;7.60;;;;;;;;;;5072740;28;20209;-66
2023/02/25 01:36:34;;;;;;;62.38;6.82;;;;;;;;;;5072458;28;20229;-66
2023/02/25 01:39:03;;;;;;;64.30;6.50;;;;;;;;;;5072364;28;20237;-66
2023/02/25 01:41:30;;;;;;;61.58;6.60;;;;;;;;;;5072638;28;20284;-65
2023/02/25 01:44:05;;;;;;;61.40;6.57;;;;;;;;;;5072314;28;20205;-66
2023/02/25 01:46:33;;;;;;;65.75;6.07;;;;;;;;;;5072437;28;20227;-66
2023/02/25 01:49:00;;;;;;;62.30;6.80;;;;;;;;;;5072260;28;20208;-66
2023/02/25 01:51:28;;;;;;;64.35;5.55;;;;;;;;;;5072316;28;20205;-66
2023/02/25 01:53:56;;;;;;;64.05;6.03;;;;;;;;;;5072036;28;20213;-66
2023/02/25 01:56:26;;;;;;;64.38;6.72;;;;;;;;;;5071774;28;20235;-66
2023/02/25 01:58:53;;;;;;;64.90;6.30;;;;;;;;;;5071885;28;20226;-66
2023/02/25 02:01:21;;;;;;;62.75;6.57;;;;;;;;;;5072258;28;20215;-66
2023/02/25 02:03:50;;;;;;;62.35;5.60;;;;;;;;;;5072248;28;20213;-65
2023/02/25 02:06:19;;;;;;;63.58;6.15;;;;;;;;;;5071942;28;20616;-66
2023/02/25 02:08:46;;;;;;;63.05;6.20;;;;;;;;;;5071564;28;20205;-66
2023/02/25 02:11:14;;;;;;;63.60;6.97;;;;;;;;;;5072219;28;20209;-65
2023/02/25 02:13:44;;;;;;;61.65;7.00;;;;;;;;;;5072042;28;20205;-66
2023/02/25 02:16:20;;;;;;;63.00;7.15;;;;;;;;;;5072061;28;20229;-66
2023/02/25 02:18:49;;;;;;;62.55;6.10;;;;;;;;;;5071392;28;20649;-66
2023/02/25 02:21:29;;;;;;;65.93;7.13;;;;;;;;;;5071914;28;20219;-66
2023/02/25 02:24:11;;;;;;;63.05;7.25;;;;;;;;;;5071751;28;20259;-65
2023/02/25 02:26:45;;;;;;;63.63;6.57;;;;;;;;;;5069584;28;20250;-66
2023/02/25 02:29:20;;;;;;;62.13;6.30;;;;;;;;;;5071426;28;20270;-66
2023/02/25 02:31:52;;;;;;;60.95;6.00;;;;;;;;;;5071710;28;20207;-66
2023/02/25 02:34:25;;;;;;;63.83;5.95;;;;;;;;;;5070986;28;20206;-66
2023/02/25 02:36:59;;;;;;;63.60;6.00;;;;;;;;;;5071673;28;20228;-66
2023/02/25 02:39:29;;;;;;;61.72;5.55;;;;;;;;;;5071378;28;20204;-66
2023/02/25 02:42:00;;;;;;;66.53;5.22;;;;;;;;;;5071751;28;20201;-65
2023/02/25 02:44:30;;;;;;;66.60;6.03;;;;;;;;;;5071864;28;20602;-66
2023/02/25 02:47:01;;;;;;;65.57;5.57;;;;;;;;;;5071952;28;20558;-66
2023/02/25 02:49:31;;;;;;;62.97;5.78;;;;;;;;;;5071318;28;20205;-66
2023/02/25 02:52:01;;;;;;;62.45;5.40;;;;;;;;;;5071503;28;20205;-66
2023/02/25 02:54:31;;;;;;;60.67;5.30;;;;;;;;;;5071292;28;20237;-66
2023/02/25 02:56:59;;;;;;;61.55;5.70;;;;;;;;;;5069798;28;20221;-66
2023/02/25 02:59:27;;;;;;;61.30;5.13;;;;;;;;;;5071195;28;20201;-66
2023/02/25 03:01:58;;;;;;;60.67;5.07;;;;;;;;;;5071526;28;20201;-66
2023/02/25 03:04:30;;;;;;;62.03;5.45;;;;;;;;;;5071286;28;20672;-66
2023/02/25 03:06:58;;;;;;;61.70;5.78;;;;;;;;;;5071708;28;20202;-66
2023/02/25 03:09:30;;;;;;;61.45;5.60;;;;;;;;;;5071029;28;20215;-66
2023/02/25 03:11:57;;;;;;;61.08;4.80;;;;;;;;;;5071510;28;20237;-66
2023/02/25 03:14:25;;;;;;;64.18;5.45;;;;;;;;;;5071170;28;20660;-66
2023/02/25 03:16:53;;;;;;;61.35;4.95;;;;;;;;;;5071105;28;20229;-66
2023/02/25 03:19:23;;;;;;;61.60;4.78;;;;;;;;;;5070865;28;20216;-66
2023/02/25 03:21:55;;;;;;;61.67;5.20;;;;;;;;;;5071175;28;20729;-66
2023/02/25 03:24:23;;;;;;;61.45;4.72;;;;;;;;;;5071123;28;20274;-66
2023/02/25 03:26:51;;;;;;;63.20;5.50;;;;;;;;;;5071691;28;20665;-66
2023/02/25 03:29:19;;;;;;;61.50;4.93;;;;;;;;;;5070717;28;20201;-66
2023/02/25 03:31:50;;;;;;;61.63;5.15;;;;;;;;;;5071106;28;20691;-66
2023/02/25 03:34:19;;;;;;;62.25;5.25;;;;;;;;;;5071018;28;20205;-66
2023/02/25 03:36:48;;;;;;;61.38;4.43;;;;;;;;;;5071039;28;20260;-65
2023/02/25 03:39:19;;;;;;;61.65;4.75;;;;;;;;;;5070697;28;20213;-66
2023/02/25 03:41:48;;;;;;;62.35;4.75;;;;;;;;;;5071002;28;20208;-66
2023/02/25 03:44:17;;;;;;;64.43;5.00;;;;;;;;;;5071371;28;20215;-66
2023/02/25 03:46:46;;;;;;;63.78;5.40;;;;;;;;;;5074818;28;20215;-66
2023/02/25 03:49:15;;;;;;;61.63;5.45;;;;;;;;;;5074434;28;20211;-66
2023/02/25 03:51:46;;;;;;;61.97;5.35;;;;;;;;;;5074673;28;20223;-66
2023/02/25 03:54:15;;;;;;;63.90;5.50;;;;;;;;;;5074495;28;20258;-66
2023/02/25 03:56:45;;;;;;;60.70;5.30;;;;;;;;;;5074283;28;20293;-66
2023/02/25 03:59:12;;;;;;;65.88;6.38;;;;;;;;;;5074330;28;20682;-66
2023/02/25 04:01:40;;;;;;;63.67;5.60;;;;;;;;;;5074319;28;20205;-66
2023/02/25 04:04:07;;;;;;;62.38;6.72;;;;;;;;;;5074471;28;20209;-65
2023/02/25 04:06:34;;;;;;;62.28;5.53;;;;;;;;;;5074388;28;20286;-66
2023/02/25 04:09:02;;;;;;;62.65;5.65;;;;;;;;;;5074091;28;20209;-66
2023/02/25 04:11:29;;;;;;;64.32;6.32;;;;;;;;;;5074301;28;20212;-66
2023/02/25 04:13:58;;;;;;;62.20;5.35;;;;;;;;;;5074283;28;20549;-66
2023/02/25 04:16:25;;;;;;;59.78;5.15;;;;;;;;;;5073906;28;20229;-66
2023/02/25 04:18:52;;;;;;;62.67;5.55;;;;;;;;;;5073682;28;20246;-66
2023/02/25 04:21:28;;;;;;;63.63;5.38;;;;;;;;;;5074019;28;20592;-66
2023/02/25 04:23:55;;;;;;;61.67;5.35;;;;;;;;;;5074596;28;20212;-66
2023/02/25 04:26:22;;;;;;;63.70;4.93;;;;;;;;;;5074492;28;20241;-66
2023/02/25 04:28:49;;;;;;;61.65;4.50;;;;;;;;;;5073710;28;20213;-66
2023/02/25 04:31:18;;;;;;;61.53;4.78;;;;;;;;;;5073911;28;20673;-66
2023/02/25 04:33:48;;;;;;;61.70;4.47;;;;;;;;;;5073882;28;20204;-66
2023/02/25 04:36:25;;;;;;;61.72;4.30;;;;;;;;;;5073696;28;20228;-66
2023/02/25 04:38:52;;;;;;;61.85;4.40;;;;;;;;;;5073424;28;20212;-66
2023/02/25 04:41:20;;;;;;;61.42;4.95;;;;;;;;;;5073792;28;20210;-66
2023/02/25 04:43:47;;;;;;;60.65;4.63;;;;;;;;;;5073539;28;20211;-66
2023/02/25 04:46:14;;;;;;;62.50;4.30;;;;;;;;;;5073556;28;20617;-66
2023/02/25 04:48:42;;;;;;;60.42;4.30;;;;;;;;;;5073015;28;20205;-66
2023/02/25 04:51:09;;;;;;;65.57;4.47;;;;;;;;;;5073693;28;20560;-66
2023/02/25 04:53:37;;;;;;;60.60;4.25;;;;;;;;;;5073375;28;20208;-66
2023/02/25 04:56:04;;;;;;;63.70;4.50;;;;;;;;;;5072846;28;20466;-66
2023/02/25 04:58:31;;;;;;;64.57;4.30;;;;;;;;;;5073086;28;20232;-66
2023/02/25 05:01:00;;;;;;;61.28;4.65;;;;;;;;;;5073146;28;20204;-66
2023/02/25 05:03:27;;;;;;;63.40;4.30;;;;;;;;;;5073459;28;20300;-66
2023/02/25 05:05:55;;;;;;;66.95;5.20;;;;;;;;;;5073329;28;20228;-66
2023/02/25 05:08:23;;;;;;;58.28;3.80;;;;;;;;;;5073064;28;20205;-66
2023/02/25 05:10:50;;;;;;;58.75;3.95;;;;;;;;;;5072918;28;20212;-66
2023/02/25 05:13:17;;;;;;;66.40;4.30;;;;;;;;;;5073310;28;20209;-66
2023/02/25 05:15:44;;;;;;;66.50;4.88;;;;;;;;;;5072790;28;20225;-66
2023/02/25 05:18:11;;;;;;;66.28;4.18;;;;;;;;;;5072693;28;20235;-66
2023/02/25 05:20:40;;;;;;;61.50;4.70;;;;;;;;;;5072994;28;20205;-66
2023/02/25 05:23:09;;;;;;;63.47;4.80;;;;;;;;;;5072906;28;20217;-66
2023/02/25 05:25:40;;;;;;;60.35;4.68;;;;;;;;;;5072663;28;20251;-66
2023/02/25 05:28:07;;;;;;;61.63;4.65;;;;;;;;;;5072548;28;20283;-66
2023/02/25 05:30:34;;;;;;;62.80;4.50;;;;;;;;;;5072381;28;20221;-66
2023/02/25 05:33:01;;;;;;;59.58;3.70;;;;;;;;;;5072841;28;20209;-66
2023/02/25 05:35:28;;;;;;;60.85;4.45;;;;;;;;;;5072815;28;20221;-66
2023/02/25 05:37:55;;;;;;;60.95;4.60;;;;;;;;;;5072387;28;20232;-66
2023/02/25 05:40:24;;;;;;;60.75;4.00;;;;;;;;;;5072279;28;20213;-66
2023/02/25 05:42:51;;;;;;;63.30;4.60;;;;;;;;;;5072467;28;20700;-66
2023/02/25 05:45:18;;;;;;;64.25;4.45;;;;;;;;;;5072405;28;20281;-66
2023/02/25 05:47:45;;;;;;;66.32;4.22;;;;;;;;;;5072606;28;20593;-66
2023/02/25 05:50:12;;;;;;;59.80;4.05;;;;;;;;;;5072173;28;20235;-66
2023/02/25 05:52:39;;;;;;;60.50;4.38;;;;;;;;;;5072246;28;20209;-66
2023/02/25 05:55:08;;;;;;;61.33;4.60;;;;;;;;;;5072033;28;20231;-66
2023/02/25 05:57:37;;;;;;;58.88;4.28;;;;;;;;;;5072081;28;20225;-66
2023/02/25 06:00:07;;;;;;;61.03;4.95;;;;;;;;;;5072047;28;20201;-66
2023/02/25 06:02:35;;;;;;;60.13;4.22;;;;;;;;;;5072147;28;20212;-66
2023/02/25 06:05:02;;;;;;;60.75;4.22;;;;;;;;;;5072060;28;20744;-66
2023/02/25 06:07:30;;;;;;;60.03;4.38;;;;;;;;;;5071669;28;20623;-66
2023/02/25 06:09:59;;;;;;;59.38;3.63;;;;;;;;;;5071181;28;20204;-66
2023/02/25 06:12:26;;;;;;;58.78;3.95;;;;;;;;;;5072143;28;20259;-66
2023/02/25 06:14:55;;;;;;;66.03;4.00;;;;;;;;;;5072034;28;20221;-66
2023/02/25 06:17:23;;;;;;;60.15;4.05;;;;;;;;;;5071826;28;20235;-66
2023/02/25 06:19:51;;;;;;;68.47;4.60;;;;;;;;;;5071896;28;20219;-66
2023/02/25 06:22:18;;;;;;;59.08;3.75;;;;;;;;;;5071559;28;20209;-66
2023/02/25 06:24:45;;;;;;;59.35;4.00;;;;;;;;;;5072034;28;20235;-66
2023/02/25 06:27:12;;;;;;;63.92;4.22;;;;;;;;;;5071927;28;20212;-66
2023/02/25 06:29:40;;;;;;;58.25;3.60;;;;;;;;;;5071401;28;20204;-66
2023/02/25 06:32:09;;;;;;;60.38;3.60;;;;;;;;;;5071870;28;20275;-67
2023/02/25 06:34:36;;;;;;;65.25;4.60;;;;;;;;;;5071512;28;20205;-67
2023/02/25 06:37:03;;;;;;;59.55;3.83;;;;;;;;;;5071535;28;20217;-67
2023/02/25 06:39:30;;;;;;;59.30;4.25;;;;;;;;;;5071592;28;20208;-66
2023/02/25 06:41:57;;;;;;;59.92;4.32;;;;;;;;;;5072764;28;20212;-66
2023/02/25 06:44:25;;;;;;;61.67;3.60;;;;;;;;;;5072960;28;20328;-66
2023/02/25 06:46:54;;;;;;;58.92;3.83;;;;;;;;;;5072748;28;20220;-66
2023/02/25 06:49:22;;;;;;;62.05;4.43;;;;;;;;;;5072628;28;20693;-66
2023/02/25 06:51:50;;;;;;;59.30;3.50;;;;;;;;;;5071510;28;20701;-66
2023/02/25 06:54:17;;;;;;;63.97;3.80;;;;;;;;;;5071305;28;20676;-66
2023/02/25 06:56:44;;;;;;;60.65;4.40;;;;;;;;;;5071288;28;20209;-66
2023/02/25 06:59:11;;;;;;;59.17;4.22;;;;;;;;;;5070980;28;20240;-64
2023/02/25 07:01:39;;;;;;;68.07;3.95;;;;;;;;;;5071446;28;20216;-66
2023/02/25 07:04:06;;;;;;;60.20;3.97;;;;;;;;;;5071273;28;20212;-66
2023/02/25 07:06:35;;;;;;;61.25;3.88;;;;;;;;;;5071508;28;20235;-66
2023/02/25 07:09:02;;;;;;;60.53;4.10;;;;;;;;;;5071211;28;20207;-66
2023/02/25 07:11:32;;;;;;;64.20;4.60;;;;;;;;;;5071251;28;20216;-66
2023/02/25 07:13:59;;;;;;;60.92;4.40;;;;;;;;;;5071227;28;20209;-66
2023/02/25 07:16:28;;;;;;;63.00;4.30;;;;;;;;;;5071047;28;20236;-66
2023/02/25 07:18:55;;;;;;;60.20;4.38;;;;;;;;;;5071189;28;20324;-67
2023/02/25 07:21:23;;;;;;;63.78;3.83;;;;;;;;;;5075319;28;20217;-66
2023/02/25 07:23:52;;;;;;;61.15;4.35;;;;;;;;;;5075131;28;20216;-66
2023/02/25 07:26:19;;;;;;;59.88;3.50;;;;;;;;;;5074990;28;20231;-66
2023/02/25 07:28:47;;;;;;;60.58;3.85;;;;;;;;;;5074658;28;20205;-66
2023/02/25 07:31:15;;;;;;;60.65;3.60;;;;;;;;;;5075151;28;20213;-66
2023/02/25 07:33:43;;;;;;;60.30;3.65;;;;;;;;;;5074895;28;20657;-67
2023/02/25 07:36:10;;;;;;;59.50;3.88;;;;;;;;;;5074879;28;20236;-66
2023/02/25 07:38:38;;;;;;;60.88;4.47;;;;;;;;;;5074589;28;20228;-67
2023/02/25 07:41:07;;;;;;;59.80;3.88;;;;;;;;;;5074765;28;20213;-67
2023/02/25 07:43:35;;;;;;;59.28;3.42;;;;;;;;;;5074601;28;20208;-66
2023/02/25 07:46:02;;;;;;;60.45;4.00;;;;;;;;;;5074903;28;20313;-66
2023/02/25 07:48:30;;;;;;;58.55;3.90;;;;;;;;;;5074740;28;20573;-66
2023/02/25 07:50:57;;;;;;;62.08;3.88;;;;;;;;;;5074619;28;20209;-66
2023/02/25 07:53:24;;;;;;;61.72;3.20;;;;;;;;;;5074870;28;20585;-66
2023/02/25 07:55:51;;;;;;;60.78;3.90;;;;;;;;;;5074533;28;20244;-66
2023/02/25 07:58:20;;;;;;;66.75;4.60;;;;;;;;;;5074453;28;20236;-66
2023/02/25 08:00:47;;;;;;;60.65;3.65;;;;;;;;;;5074257;28;20205;-66
2023/02/25 08:03:14;;;;;;;65.20;3.78;;;;;;;;;;5074627;28;20217;-66
2023/02/25 08:05:41;;;;;;;58.80;4.07;;;;;;;;;;5074401;28;20229;-66
2023/02/25 08:08:09;;;;;;;61.25;3.80;;;;;;;;;;5074264;28;20208;-66
2023/02/25 08:10:37;;;;;;;63.30;4.40;;;;;;;;;;5073923;28;20209;-66
2023/02/25 08:13:04;;;;;;;60.80;3.53;;;;;;;;;;5074564;28;20213;-66
2023/02/25 08:15:32;;;;;;;59.42;3.40;;;;;;;;;;5074391;28;20228;-67
2023/02/25 08:17:59;;;;;;;59.45;3.40;;;;;;;;;;5074015;28;20251;-66
2023/02/25 08:20:26;;;;;;;58.47;3.30;;;;;;;;;;5073861;28;20201;-66
2023/02/25 08:22:55;;;;;;;61.65;3.63;;;;;;;;;;5074017;28;20218;-66
2023/02/25 08:25:22;;;;;;;59.72;3.33;;;;;;;;;;5074172;28;20229;-66
2023/02/25 08:27:50;;;;;;;66.57;4.00;;;;;;;;;;5073774;28;20704;-66
2023/02/25 08:30:17;;;;;;;58.63;3.45;;;;;;;;;;5073326;28;20206;-66
2023/02/25 08:32:45;;;;;;;62.63;3.50;;;;;;;;;;5073122;28;20201;-65
2023/02/25 08:35:12;;;;;;;61.15;3.72;;;;;;;;;;5073622;28;20240;-66
2023/02/25 08:37:40;;;;;;;63.75;3.80;;;;;;;;;;5073581;28;20306;-66
2023/02/25 08:40:09;;;;;;;61.15;4.15;;;;;;;;;;5073898;28;20236;-66
2023/02/25 08:42:36;;;;;;;61.27;3.60;;;;;;;;;;5073876;28;20295;-66
2023/02/25 08:45:04;;;;;;;60.55;5.05;;;;;;;;;;5073661;28;20468;-66
2023/02/25 08:47:31;;;;;;;63.03;3.55;;;;;;;;;;5073766;28;20212;-65
2023/02/25 08:49:59;;;;;;;61.55;4.15;;;;;;;;;;5073153;28;20666;-66
2023/02/25 08:52:33;;;;;;;62.80;3.70;;;;;;;;;;5074132;28;20202;-66
2023/02/25 08:55:01;;;;;;;61.63;3.72;;;;;;;;;;5073590;28;20229;-66
2023/02/25 08:57:28;;;;;;;60.35;3.90;;;;;;;;;;5073266;28;20677;-66
2023/02/25 08:59:55;;;;;;;59.95;3.75;;;;;;;;;;5073176;28;20225;-66
2023/02/25 09:02:23;;;;;;;61.00;3.75;;;;;;;;;;5073174;28;20219;-66
2023/02/25 09:04:50;;;;;;;66.35;3.90;;;;;;;;;;5072986;28;20590;-67
2023/02/25 09:07:19;;;;;;;59.40;3.42;;;;;;;;;;5073329;28;20205;-66
2023/02/25 09:09:46;;;;;;;59.03;3.15;;;;;;;;;;5072909;28;20209;-66
2023/02/25 09:12:13;;;;;;;58.20;3.58;;;;;;;;;;5073215;28;20209;-66
2023/02/25 09:14:40;;;;;;;57.88;3.72;;;;;;;;;;5072981;28;20232;-66
2023/02/25 09:17:08;;;;;;;60.20;3.70;;;;;;;;;;5073121;28;20205;-66
2023/02/25 09:19:37;;;;;;;60.65;3.50;;;;;;;;;;5072511;28;20292;-66
2023/02/25 09:22:04;;;;;;;62.73;3.80;;;;;;;;;;5072975;28;20205;-66
2023/02/25 09:24:33;;;;;;;58.87;3.10;;;;;;;;;;5072715;28;20466;-66
2023/02/25 09:27:05;;;;;;;61.33;3.67;;;;;;;;;;5072886;28;20453;-66
2023/02/25 09:29:32;;;;;;;59.60;3.87;;;;;;;;;;5072457;28;20451;-66
2023/02/25 09:31:59;;;;;;;60.93;3.70;;;;;;;;;;5072610;28;20948;-66
2023/02/25 09:34:26;;;;;;;59.00;3.50;;;;;;;;;;5072677;28;20447;-66
2023/02/25 09:36:54;;;;;;;59.50;3.10;;;;;;;;;;5072591;28;20463;-65
2023/02/25 09:39:21;;;;;;;58.67;3.10;;;;;;;;;;5072134;28;20495;-66
2023/02/25 09:41:52;;;;;;;58.20;3.00;;;;;;;;;;5072294;28;20947;-67
2023/02/25 09:44:21;;;;;;;59.37;3.00;;;;;;;;;;5072327;28;20454;-66
2023/02/25 09:46:51;;;;;;;58.70;2.87;;;;;;;;;;5072613;28;20447;-65
2023/02/25 09:49:20;;;;;;;59.23;2.87;;;;;;;;;;5072192;28;20449;-66
2023/02/25 09:51:53;;;;;;;58.37;2.60;;;;;;;;;;5072266;28;20470;-66
2023/02/25 09:54:23;;;;;;;60.07;3.00;;;;;;;;;;5072311;28;20452;-66
2023/02/25 09:56:53;;;;;;;58.00;2.80;;;;;;;;;;5071999;28;20451;-66
2023/02/25 09:59:21;;;;;;;58.37;3.07;;;;;;;;;;5071845;28;20493;-66
2023/02/25 10:01:52;;;;;;;57.83;2.80;;;;;;;;;;5072323;28;20493;-66
2023/02/25 10:04:24;;;;;;;58.10;3.20;;;;;;;;;;5072606;28;20451;-66
2023/02/25 10:06:54;;;;;;;59.80;3.20;;;;;;;;;;5071987;28;20447;-66
2023/02/25 10:09:26;;;;;;;60.20;2.83;;;;;;;;;;5071559;28;20444;-66
2023/02/25 10:12:01;;;;;;;58.20;3.13;;;;;;;;;;5072303;28;20451;-66
2023/02/25 10:14:41;;;;;;;60.60;3.40;;;;;;;;;;5071765;28;20454;-66
2023/02/25 10:17:13;;;;;;;59.17;2.87;;;;;;;;;;5071875;28;20455;-66
2023/02/25 10:19:47;;;;;;;59.60;3.00;;;;;;;;;;5071477;28;20479;-66
2023/02/25 10:22:21;;;;;;;59.60;3.00;;;;;;;;;;5071983;28;20538;-65
2023/02/25 10:24:49;;;;;;;57.73;3.00;;;;;;;;;;5071691;28;20994;-65
2023/02/25 10:27:20;;;;;;;61.73;3.27;;;;;;;;;;5071998;28;20824;-65
2023/02/25 10:29:49;;;;;;;57.47;2.60;;;;;;;;;;5071463;28;20450;-65
2023/02/25 10:32:18;;;;;;;60.33;3.67;;;;;;;;;;5071625;28;20458;-66
2023/02/25 10:34:45;;;;;;;58.57;3.00;;;;;;;;;;5071704;28;20471;-65
2023/02/25 10:37:17;;;;;;;59.00;2.70;;;;;;;;;;5071910;28;20458;-65
2023/02/25 10:39:47;;;;;;;58.23;3.00;;;;;;;;;;5071123;28;20487;-65
2023/02/25 10:42:14;;;;;;;59.77;3.00;;;;;;;;;;5071510;28;20451;-66
2023/02/25 10:44:44;;;;;;;58.90;3.43;;;;;;;;;;5071691;28;20470;-65
2023/02/25 10:47:13;;;;;;;60.80;3.10;;;;;;;;;;5071587;28;20510;-66
2023/02/25 10:49:41;;;;;;;58.00;2.97;;;;;;;;;;5071066;28;20447;-65
2023/02/25 10:52:14;;;;;;;59.20;3.40;;;;;;;;;;5071521;28;20458;-65
2023/02/25 10:54:46;;;;;;;59.10;3.00;;;;;;;;;;5074580;28;20471;-65
2023/02/25 10:57:15;;;;;;;60.67;3.40;;;;;;;;;;5078260;28;20870;-65
2023/02/25 10:59:45;;;;;;;61.40;3.10;;;;;;;;;;5077617;28;20483;-66
2023/02/25 11:02:22;;;;;;;58.43;3.23;;;;;;;;;;5078267;28;20822;-66
2023/02/25 11:04:51;;;;;;;68.00;3.93;;;;;;;;;;5078087;28;20467;-66
2023/02/25 11:07:28;;;;;;;60.77;3.00;;;;;;;;;;5077969;28;20454;-67
2023/02/25 11:10:08;;;;;;;58.50;3.17;;;;;;;;;;5077551;28;20470;-66
2023/02/25 11:12:40;;;;;;;58.70;3.30;;;;;;;;;;5078344;28;20454;-66
2023/02/25 11:15:20;;;;;;;58.57;3.03;;;;;;;;;;5078234;28;20484;-66
2023/02/25 11:17:48;;;;;;;58.50;3.00;;;;;;;;;;5077846;28;20457;-66
2023/02/25 11:20:22;;;;;;;61.73;3.60;;;;;;;;;;5077337;28;20849;-65
2023/02/25 11:22:52;;;;;;;59.00;3.40;;;;;;;;;;5077672;28;20463;-65
2023/02/25 11:25:21;;;;;;;58.77;4.10;;;;;;;;;;5077936;28;20471;-66
2023/02/25 11:27:54;;;;;;;60.27;3.43;;;;;;;;;;5077770;28;20451;-65
2023/02/25 11:30:25;;;;;;;59.50;3.80;;;;;;;;;;5077502;28;20443;-65
2023/02/25 11:32:54;;;;;;;59.20;3.30;;;;;;;;;;5077595;28;20478;-66
2023/02/25 11:35:27;;;;;;;62.97;3.80;;;;;;;;;;5077734;28;20473;-65
2023/02/25 11:37:54;;;;;;;60.05;3.80;;;;;;;;;;5078073;28;20462;-66
2023/02/25 11:40:24;;;;;;;58.10;3.60;;;;;;;;;;5077558;28;20225;-65
2023/02/25 11:43:01;;;;;;;59.15;4.05;;;;;;;;;;5077763;28;20207;-64
2023/02/25 11:45:31;;;;;;;61.33;5.00;;;;;;;;;;5077582;28;20225;-65
2023/02/25 11:47:58;;;;;;;58.97;3.60;;;;;;;;;;5077805;28;20451;-65
2023/02/25 11:50:28;;;;;;;58.60;3.50;;;;;;;;;;5077487;28;20208;-65
2023/02/25 11:52:57;;;;;;;62.97;3.50;;;;;;;;;;5077866;28;20459;-65
2023/02/25 11:55:35;;;;;;;59.50;3.63;;;;;;;;;;5077574;28;20235;-66
2023/02/25 11:58:05;;;;;;;58.43;3.27;;;;;;;;;;5077760;28;20447;-66
2023/02/25 12:00:39;;;;;;;59.30;3.27;;;;;;;;;;5077466;28;20490;-65
2023/02/25 12:03:16;;;;;;;62.90;3.30;;;;;;;;;;5077666;28;20455;-66
2023/02/25 12:06:01;;;;;;;59.53;3.37;;;;;;;;;;5076532;28;20562;-66
2023/02/25 12:08:42;;;;;;;59.03;2.90;;;;;;;;;;5074494;28;20450;-65
2023/02/25 12:11:24;;;;;;;59.87;3.60;;;;;;;;;;5074387;28;20454;-66
2023/02/25 12:14:02;;;;;;;61.07;3.83;;;;;;;;;;5074184;28;20448;-66
2023/02/25 12:16:42;;;;;;;59.63;3.60;;;;;;;;;;5074056;28;20888;-65
2023/02/25 12:19:27;;;;;;;60.60;3.63;;;;;;;;;;5073837;28;20455;-65
2023/02/25 12:22:11;;;;;;;59.10;4.30;;;;;;;;;;5074253;28;20443;-65
2023/02/25 12:24:57;;;;;;;59.70;4.03;;;;;;;;;;5073946;28;20458;-65
2023/02/25 12:27:36;;;;;;;61.65;3.90;;;;;;;;;;5074229;28;20451;-65
2023/02/25 12:30:14;;;;;;;59.28;3.78;;;;;;;;;;5073816;28;20201;-66
2023/02/25 12:32:55;;;;;;;60.10;3.92;;;;;;;;;;5074468;28;20664;-66
2023/02/25 12:35:38;;;;;;;64.20;4.33;;;;;;;;;;5074067;28;20713;-67
2023/02/25 12:38:15;;;;;;;59.90;4.05;;;;;;;;;;5072430;28;20955;-65
2023/02/25 12:40:50;;;;;;;63.33;4.70;;;;;;;;;;5073863;28;20383;-65
2023/02/25 12:43:24;;;;;;;60.28;4.00;;;;;;;;;;5073915;28;20231;-67
2023/02/25 12:46:04;;;;;;;60.63;3.70;;;;;;;;;;5073687;28;20228;-67
2023/02/25 12:48:43;;;;;;;60.15;4.05;;;;;;;;;;5073694;28;20209;-65
2023/02/25 12:51:15;;;;;;;60.35;4.43;;;;;;;;;;5073589;28;20208;-67
2023/02/25 12:53:46;;;;;;;58.90;3.60;;;;;;;;;;5073598;28;20221;-67
2023/02/25 12:56:21;;;;;;;59.08;3.30;;;;;;;;;;5073306;28;20280;-65
2023/02/25 12:58:57;;;;;;;59.05;3.50;;;;;;;;;;5073211;28;20209;-66
2023/02/25 13:01:38;;;;;;;58.60;3.85;;;;;;;;;;5073370;28;20228;-66
2023/02/25 13:04:17;;;;;;;60.03;3.73;;;;;;;;;;5073295;28;20644;-66
2023/02/25 13:06:55;;;;;;;58.50;3.57;;;;;;;;;;5072996;28;20471;-65
2023/02/25 13:09:40;;;;;;;59.07;3.40;;;;;;;;;;5073043;28;20899;-66
2023/02/25 13:12:16;;;;;;;63.07;4.00;;;;;;;;;;5042869;28;20454;-66
2023/02/25 13:14:55;;;;;;;61.60;3.53;;;;;;;;;;5073463;28;20467;-66
2023/02/25 13:17:28;;;;;;;59.77;3.70;;;;;;;;;;5072643;28;20205;-65
2023/02/25 13:20:01;;;;;;;59.20;3.40;;;;;;;;;;5072648;28;20479;-66
2023/02/25 13:22:38;;;;;;;59.47;3.10;;;;;;;;;;5072874;28;20944;-66
2023/02/25 13:25:13;;;;;;;59.13;3.67;;;;;;;;;;5072752;28;20463;-66
2023/02/25 13:27:50;;;;;;;63.20;3.30;;;;;;;;;;5072785;28;20939;-66
2023/02/25 13:30:24;;;;;;;58.07;3.10;;;;;;;;;;5072673;28;20443;-66
2023/02/25 13:32:57;;;;;;;60.13;3.20;;;;;;;;;;5072789;28;20443;-66
2023/02/25 13:35:33;;;;;;;60.00;4.10;;;;;;;;;;5072489;28;20479;-66
2023/02/25 13:38:05;;;;;;;58.50;3.60;;;;;;;;;;5072451;28;20481;-66
2023/02/25 13:40:37;;;;;;;60.70;3.63;;;;;;;;;;5072165;28;21026;-66
2023/02/25 13:43:13;;;;;;;58.90;3.47;;;;;;;;;;5072391;28;20452;-66
2023/02/25 13:45:49;;;;;;;60.07;4.60;;;;;;;;;;5072506;28;20463;-66
2023/02/25 13:48:37;;;;;;;61.00;4.00;;;;;;;;;;5072083;28;20443;-66
2023/02/25 13:51:14;;;;;;;63.97;4.07;;;;;;;;;;5047273;28;20451;-65
2023/02/25 13:53:59;;;;;;;60.27;3.30;;;;;;;;;;5072270;28;20450;-65
2023/02/25 13:56:48;;;;;;;59.37;3.97;;;;;;;;;;5072119;28;20469;-66
2023/02/25 13:59:31;;;;;;;62.17;3.80;;;;;;;;;;5067329;28;20967;-67
2023/02/25 14:02:07;;;;;;;62.83;3.83;;;;;;;;;;5072385;28;20471;-68
2023/02/25 14:04:49;;;;;;;60.10;3.73;;;;;;;;;;5072205;28;20955;-67
2023/02/25 14:07:40;;;;;;;62.20;3.90;;;;;;;;;;5072618;28;20743;-68
2023/02/25 14:10:22;;;;;;;62.20;3.70;;;;;;;;;;5056193;28;20958;-68
2023/02/25 14:12:54;;;;;;;62.90;3.90;;;;;;;;;;5072149;28;20955;-68
2023/02/25 14:15:26;;;;;;;61.23;3.10;;;;;;;;;;5072323;28;20485;-68
2023/02/25 14:17:59;;;;;;;59.23;3.47;;;;;;;;;;5072192;28;20966;-68
2023/02/25 14:20:35;;;;;;;61.10;3.60;;;;;;;;;;5071754;28;20491;-68
2023/02/25 14:23:05;;;;;;;59.80;3.57;;;;;;;;;;5071827;28;20982;-69
2023/02/25 14:25:44;;;;;;;58.80;3.10;;;;;;;;;;5071764;28;20503;-68
2023/02/25 14:28:15;;;;;;;60.10;3.73;;;;;;;;;;5071848;28;20873;-64
2023/02/25 14:30:50;;;;;;;62.90;3.37;;;;;;;;;;5071196;28;20447;-65
2023/02/25 14:33:27;;;;;;;60.27;3.90;;;;;;;;;;5071870;28;20458;-67
2023/02/25 14:36:01;;;;;;;63.20;4.10;;;;;;;;;;5071932;28;20463;-67
2023/02/25 14:38:34;;;;;;;61.50;3.90;;;;;;;;;;5072191;28;20538;-67
2023/02/25 14:41:09;;;;;;;60.60;3.93;;;;;;;;;;5071886;28;20482;-66
2023/02/25 14:43:37;;;;;;;59.63;3.70;;;;;;;;;;5071931;28;20451;-66
2023/02/25 14:46:11;;;;;;;60.27;3.83;;;;;;;;;;5071688;28;20479;-66